KSKA/SKA METAR and TAF weather

Enter ICAO airport designator
Station Type Date Time Source
KSKA METAR 2019/02/21 10:58 UTC NOAA

KSKA 211058Z 03009KT 10SM CLR M07/M08 A2991 RMK AO2A SLP163 T10751076 $


Station Type Date Time Source
KSKA Decoded METAR 2019/02/21 10:58 UTC NOAA

Fairchild Air Force Base, WA, United States (KSKA) 47-37N 117-39W
Feb 21, 2019 - 05:58 AM EST / 2019.02.21 1058 UTC
Wind: from the NNE (030 degrees) at 10 MPH (9 KT):0
Visibility: 10 mile(s):0
Sky conditions: clear
Temperature: 18.5 F (-7.5 C)
Windchill: 6 F (-14 C):1
Dew Point: 18.3 F (-7.6 C)
Relative Humidity: 99%
Pressure (altimeter): 29.91 in. Hg (1012 hPa)
ob: KSKA 211058Z 03009KT 10SM CLR M07/M08 A2991 RMK AO2A SLP163 T10751076
cycle: 11

Station Type Date Time Source
KSKA TAF 2019/02/21 11:06 UTC NOAA

TAF KSKA 211100Z 2111/2217 02007KT 9999 FEW070 QNH2991INS
TEMPO 2113/2115 0800 BCFG SCT002
BECMG 2215/2216 18007KT 9999 BKN007 620072 QNH2993INS TXM03/2121Z TNM10/2203Z


Example: see airport list